sensor_id;sensor_type;location;lat;lon;timestamp;P1;durP1;ratioP1;P2;durP2;ratioP2
13999;SDS011;7075;53.574;10.054;2023-06-22T00:01:58;4.10;;;3.03;;
13999;SDS011;7075;53.574;10.054;2023-06-22T00:04:24;3.00;;;2.67;;
13999;SDS011;7075;53.574;10.054;2023-06-22T00:10:12;4.17;;;3.30;;
13999;SDS011;7075;53.574;10.054;2023-06-22T00:12:37;3.13;;;2.80;;
13999;SDS011;7075;53.574;10.054;2023-06-22T00:15:03;4.73;;;3.30;;
13999;SDS011;7075;53.574;10.054;2023-06-22T00:17:29;4.10;;;3.37;;
13999;SDS011;7075;53.574;10.054;2023-06-22T00:19:54;3.93;;;2.90;;
13999;SDS011;7075;53.574;10.054;2023-06-22T00:22:21;3.53;;;3.20;;
13999;SDS011;7075;53.574;10.054;2023-06-22T00:25:03;3.83;;;3.03;;
13999;SDS011;7075;53.574;10.054;2023-06-22T00:27:30;4.27;;;3.43;;
13999;SDS011;7075;53.574;10.054;2023-06-22T00:29:55;4.63;;;3.60;;
13999;SDS011;7075;53.574;10.054;2023-06-22T00:32:22;4.17;;;3.43;;
13999;SDS011;7075;53.574;10.054;2023-06-22T00:34:47;3.57;;;2.87;;
13999;SDS011;7075;53.574;10.054;2023-06-22T00:37:13;3.60;;;2.80;;
13999;SDS011;7075;53.574;10.054;2023-06-22T00:39:40;5.30;;;2.97;;
13999;SDS011;7075;53.574;10.054;2023-06-22T00:42:07;5.40;;;3.00;;
13999;SDS011;7075;53.574;10.054;2023-06-22T00:44:32;5.70;;;3.23;;
13999;SDS011;7075;53.574;10.054;2023-06-22T00:46:58;3.00;;;2.70;;
13999;SDS011;7075;53.574;10.054;2023-06-22T00:49:25;3.80;;;3.33;;
13999;SDS011;7075;53.574;10.054;2023-06-22T00:51:51;4.47;;;3.20;;
13999;SDS011;7075;53.574;10.054;2023-06-22T00:54:17;4.50;;;2.90;;
13999;SDS011;7075;53.574;10.054;2023-06-22T00:56:49;4.20;;;2.90;;
13999;SDS011;7075;53.574;10.054;2023-06-22T00:59:17;4.77;;;3.20;;
13999;SDS011;7075;53.574;10.054;2023-06-22T01:01:44;3.77;;;3.33;;
13999;SDS011;7075;53.574;10.054;2023-06-22T01:04:10;4.23;;;2.90;;
13999;SDS011;7075;53.574;10.054;2023-06-22T01:06:38;4.23;;;3.53;;
13999;SDS011;7075;53.574;10.054;2023-06-22T01:09:15;4.30;;;3.43;;
13999;SDS011;7075;53.574;10.054;2023-06-22T01:11:45;4.80;;;3.20;;
13999;SDS011;7075;53.574;10.054;2023-06-22T01:17:41;3.30;;;3.00;;
13999;SDS011;7075;53.574;10.054;2023-06-22T01:20:09;3.17;;;2.87;;
13999;SDS011;7075;53.574;10.054;2023-06-22T01:22:59;4.87;;;3.20;;
13999;SDS011;7075;53.574;10.054;2023-06-22T01:25:36;3.67;;;3.37;;
13999;SDS011;7075;53.574;10.054;2023-06-22T01:28:20;4.20;;;3.37;;
13999;SDS011;7075;53.574;10.054;2023-06-22T01:30:56;4.50;;;2.80;;
13999;SDS011;7075;53.574;10.054;2023-06-22T01:33:35;5.73;;;2.93;;
13999;SDS011;7075;53.574;10.054;2023-06-22T01:36:02;4.40;;;3.10;;
13999;SDS011;7075;53.574;10.054;2023-06-22T01:38:36;4.57;;;3.57;;
13999;SDS011;7075;53.574;10.054;2023-06-22T01:41:03;3.83;;;3.07;;
13999;SDS011;7075;53.574;10.054;2023-06-22T01:43:29;3.37;;;2.63;;
13999;SDS011;7075;53.574;10.054;2023-06-22T01:45:55;4.10;;;3.00;;
13999;SDS011;7075;53.574;10.054;2023-06-22T01:48:23;4.43;;;3.70;;
13999;SDS011;7075;53.574;10.054;2023-06-22T01:50:49;4.13;;;3.73;;
13999;SDS011;7075;53.574;10.054;2023-06-22T01:53:14;4.77;;;4.00;;
13999;SDS011;7075;53.574;10.054;2023-06-22T01:55:40;3.33;;;3.03;;
13999;SDS011;7075;53.574;10.054;2023-06-22T01:58:05;5.33;;;3.93;;
13999;SDS011;7075;53.574;10.054;2023-06-22T02:00:31;4.20;;;3.53;;
13999;SDS011;7075;53.574;10.054;2023-06-22T02:05:34;3.80;;;3.40;;
13999;SDS011;7075;53.574;10.054;2023-06-22T02:08:20;4.90;;;2.93;;
13999;SDS011;7075;53.574;10.054;2023-06-22T02:10:55;3.37;;;3.07;;
13999;SDS011;7075;53.574;10.054;2023-06-22T02:13:23;3.53;;;3.13;;
13999;SDS011;7075;53.574;10.054;2023-06-22T02:15:49;4.73;;;3.77;;
13999;SDS011;7075;53.574;10.054;2023-06-22T02:18:15;3.87;;;3.40;;
13999;SDS011;7075;53.574;10.054;2023-06-22T02:20:41;5.27;;;3.90;;
13999;SDS011;7075;53.574;10.054;2023-06-22T02:23:07;3.97;;;3.30;;
13999;SDS011;7075;53.574;10.054;2023-06-22T02:25:33;5.47;;;4.10;;
13999;SDS011;7075;53.574;10.054;2023-06-22T02:27:59;3.40;;;3.10;;
13999;SDS011;7075;53.574;10.054;2023-06-22T02:30:41;5.07;;;3.70;;
13999;SDS011;7075;53.574;10.054;2023-06-22T02:33:06;7.93;;;3.63;;
13999;SDS011;7075;53.574;10.054;2023-06-22T02:35:32;4.77;;;3.47;;
13999;SDS011;7075;53.574;10.054;2023-06-22T02:38:00;3.80;;;3.27;;
13999;SDS011;7075;53.574;10.054;2023-06-22T02:40:30;7.43;;;4.60;;
13999;SDS011;7075;53.574;10.054;2023-06-22T02:42:57;4.47;;;3.87;;
13999;SDS011;7075;53.574;10.054;2023-06-22T02:45:26;4.20;;;3.80;;
13999;SDS011;7075;53.574;10.054;2023-06-22T02:47:52;5.17;;;4.10;;
13999;SDS011;7075;53.574;10.054;2023-06-22T02:50:18;5.20;;;4.47;;
13999;SDS011;7075;53.574;10.054;2023-06-22T02:52:43;4.70;;;4.00;;
13999;SDS011;7075;53.574;10.054;2023-06-22T02:55:09;4.70;;;3.50;;
13999;SDS011;7075;53.574;10.054;2023-06-22T02:57:35;4.53;;;3.70;;
13999;SDS011;7075;53.574;10.054;2023-06-22T03:00:04;7.37;;;4.03;;
13999;SDS011;7075;53.574;10.054;2023-06-22T03:02:42;4.67;;;4.23;;
13999;SDS011;7075;53.574;10.054;2023-06-22T03:05:08;4.77;;;4.17;;
13999;SDS011;7075;53.574;10.054;2023-06-22T03:07:38;5.23;;;4.17;;
13999;SDS011;7075;53.574;10.054;2023-06-22T03:10:08;5.73;;;4.43;;
13999;SDS011;7075;53.574;10.054;2023-06-22T03:12:34;7.20;;;4.07;;
13999;SDS011;7075;53.574;10.054;2023-06-22T03:15:00;4.87;;;3.70;;
13999;SDS011;7075;53.574;10.054;2023-06-22T03:17:32;5.77;;;4.17;;
13999;SDS011;7075;53.574;10.054;2023-06-22T03:19:59;6.60;;;4.23;;
13999;SDS011;7075;53.574;10.054;2023-06-22T03:22:25;4.80;;;3.90;;
13999;SDS011;7075;53.574;10.054;2023-06-22T03:27:58;5.73;;;4.17;;
13999;SDS011;7075;53.574;10.054;2023-06-22T03:30:25;4.87;;;4.47;;
13999;SDS011;7075;53.574;10.054;2023-06-22T03:35:26;7.03;;;4.40;;
13999;SDS011;7075;53.574;10.054;2023-06-22T03:37:52;4.70;;;4.30;;
13999;SDS011;7075;53.574;10.054;2023-06-22T03:40:17;5.50;;;4.70;;
13999;SDS011;7075;53.574;10.054;2023-06-22T03:42:43;4.77;;;4.27;;
13999;SDS011;7075;53.574;10.054;2023-06-22T03:45:09;6.33;;;4.20;;
13999;SDS011;7075;53.574;10.054;2023-06-22T03:47:35;5.63;;;4.30;;
13999;SDS011;7075;53.574;10.054;2023-06-22T03:50:00;4.33;;;3.93;;
13999;SDS011;7075;53.574;10.054;2023-06-22T03:52:28;5.87;;;4.30;;
13999;SDS011;7075;53.574;10.054;2023-06-22T03:54:54;4.43;;;4.03;;
13999;SDS011;7075;53.574;10.054;2023-06-22T03:57:19;6.57;;;4.30;;
13999;SDS011;7075;53.574;10.054;2023-06-22T03:59:45;4.47;;;3.83;;
13999;SDS011;7075;53.574;10.054;2023-06-22T04:02:12;6.93;;;4.70;;
13999;SDS011;7075;53.574;10.054;2023-06-22T04:04:41;4.77;;;4.30;;
13999;SDS011;7075;53.574;10.054;2023-06-22T04:07:07;5.77;;;3.70;;
13999;SDS011;7075;53.574;10.054;2023-06-22T04:09:33;8.07;;;3.77;;
13999;SDS011;7075;53.574;10.054;2023-06-22T04:11:59;6.10;;;4.30;;
13999;SDS011;7075;53.574;10.054;2023-06-22T04:14:25;6.83;;;4.80;;
13999;SDS011;7075;53.574;10.054;2023-06-22T04:16:51;5.13;;;4.20;;
13999;SDS011;7075;53.574;10.054;2023-06-22T04:19:17;6.47;;;4.37;;
13999;SDS011;7075;53.574;10.054;2023-06-22T04:21:43;4.90;;;3.80;;
13999;SDS011;7075;53.574;10.054;2023-06-22T04:24:09;5.77;;;4.47;;
13999;SDS011;7075;53.574;10.054;2023-06-22T04:26:38;6.30;;;4.93;;
13999;SDS011;7075;53.574;10.054;2023-06-22T04:29:06;6.77;;;5.03;;
13999;SDS011;7075;53.574;10.054;2023-06-22T04:31:33;4.67;;;4.13;;
13999;SDS011;7075;53.574;10.054;2023-06-22T04:34:02;4.90;;;3.93;;
13999;SDS011;7075;53.574;10.054;2023-06-22T04:36:35;5.50;;;3.97;;
13999;SDS011;7075;53.574;10.054;2023-06-22T04:39:06;5.00;;;4.10;;
13999;SDS011;7075;53.574;10.054;2023-06-22T04:41:49;6.80;;;4.70;;
13999;SDS011;7075;53.574;10.054;2023-06-22T04:44:17;7.17;;;4.30;;
13999;SDS011;7075;53.574;10.054;2023-06-22T04:46:49;4.13;;;3.70;;
13999;SDS011;7075;53.574;10.054;2023-06-22T04:49:18;4.97;;;4.17;;
13999;SDS011;7075;53.574;10.054;2023-06-22T04:51:44;4.03;;;3.30;;
13999;SDS011;7075;53.574;10.054;2023-06-22T04:54:10;5.77;;;4.20;;
13999;SDS011;7075;53.574;10.054;2023-06-22T04:56:37;5.37;;;4.10;;
13999;SDS011;7075;53.574;10.054;2023-06-22T04:59:12;5.23;;;3.80;;
13999;SDS011;7075;53.574;10.054;2023-06-22T05:01:38;4.50;;;3.50;;
13999;SDS011;7075;53.574;10.054;2023-06-22T05:04:03;6.30;;;4.53;;
13999;SDS011;7075;53.574;10.054;2023-06-22T05:06:31;4.87;;;3.90;;
13999;SDS011;7075;53.574;10.054;2023-06-22T05:08:57;8.70;;;4.20;;
13999;SDS011;7075;53.574;10.054;2023-06-22T05:11:23;4.50;;;4.07;;
13999;SDS011;7075;53.574;10.054;2023-06-22T05:13:56;5.80;;;4.40;;
13999;SDS011;7075;53.574;10.054;2023-06-22T05:16:22;5.57;;;4.13;;
13999;SDS011;7075;53.574;10.054;2023-06-22T05:18:52;4.83;;;3.43;;
13999;SDS011;7075;53.574;10.054;2023-06-22T05:21:32;4.00;;;3.43;;
13999;SDS011;7075;53.574;10.054;2023-06-22T05:23:58;5.33;;;3.23;;
13999;SDS011;7075;53.574;10.054;2023-06-22T05:26:33;4.93;;;3.30;;
13999;SDS011;7075;53.574;10.054;2023-06-22T05:29:00;6.33;;;3.30;;
13999;SDS011;7075;53.574;10.054;2023-06-22T05:31:27;3.53;;;3.03;;
13999;SDS011;7075;53.574;10.054;2023-06-22T05:33:53;4.83;;;2.93;;
13999;SDS011;7075;53.574;10.054;2023-06-22T05:36:20;4.83;;;3.13;;
13999;SDS011;7075;53.574;10.054;2023-06-22T05:38:50;6.43;;;3.70;;
13999;SDS011;7075;53.574;10.054;2023-06-22T05:41:16;6.87;;;3.50;;
13999;SDS011;7075;53.574;10.054;2023-06-22T05:43:42;5.50;;;3.57;;
13999;SDS011;7075;53.574;10.054;2023-06-22T05:46:07;3.80;;;2.73;;
13999;SDS011;7075;53.574;10.054;2023-06-22T05:48:33;4.67;;;2.60;;
13999;SDS011;7075;53.574;10.054;2023-06-22T05:50:59;5.10;;;3.20;;
13999;SDS011;7075;53.574;10.054;2023-06-22T05:53:25;3.10;;;2.80;;
13999;SDS011;7075;53.574;10.054;2023-06-22T05:55:50;5.43;;;3.00;;
13999;SDS011;7075;53.574;10.054;2023-06-22T05:58:16;4.03;;;3.53;;
13999;SDS011;7075;53.574;10.054;2023-06-22T06:00:42;4.10;;;2.43;;
13999;SDS011;7075;53.574;10.054;2023-06-22T06:03:08;3.10;;;2.80;;
13999;SDS011;7075;53.574;10.054;2023-06-22T06:05:34;4.03;;;3.00;;
13999;SDS011;7075;53.574;10.054;2023-06-22T06:08:01;5.90;;;3.47;;
13999;SDS011;7075;53.574;10.054;2023-06-22T06:10:29;6.30;;;2.73;;
13999;SDS011;7075;53.574;10.054;2023-06-22T06:12:56;3.93;;;2.80;;
13999;SDS011;7075;53.574;10.054;2023-06-22T06:15:22;7.70;;;2.87;;
13999;SDS011;7075;53.574;10.054;2023-06-22T06:17:48;5.17;;;2.57;;
13999;SDS011;7075;53.574;10.054;2023-06-22T06:20:15;4.00;;;2.80;;
13999;SDS011;7075;53.574;10.054;2023-06-22T06:22:41;3.60;;;3.13;;
13999;SDS011;7075;53.574;10.054;2023-06-22T06:25:08;5.37;;;3.13;;
13999;SDS011;7075;53.574;10.054;2023-06-22T06:27:34;3.07;;;2.13;;
13999;SDS011;7075;53.574;10.054;2023-06-22T06:30:00;5.00;;;2.80;;
13999;SDS011;7075;53.574;10.054;2023-06-22T06:32:26;8.03;;;2.47;;
13999;SDS011;7075;53.574;10.054;2023-06-22T06:34:52;3.27;;;2.70;;
13999;SDS011;7075;53.574;10.054;2023-06-22T06:37:17;2.57;;;2.20;;
13999;SDS011;7075;53.574;10.054;2023-06-22T06:39:43;5.87;;;2.87;;
13999;SDS011;7075;53.574;10.054;2023-06-22T06:42:09;5.70;;;3.00;;
13999;SDS011;7075;53.574;10.054;2023-06-22T06:44:36;6.67;;;2.77;;
13999;SDS011;7075;53.574;10.054;2023-06-22T06:47:03;3.37;;;2.70;;
13999;SDS011;7075;53.574;10.054;2023-06-22T06:49:29;3.07;;;2.07;;
13999;SDS011;7075;53.574;10.054;2023-06-22T06:51:55;2.90;;;2.37;;
13999;SDS011;7075;53.574;10.054;2023-06-22T06:54:21;4.77;;;2.83;;
13999;SDS011;7075;53.574;10.054;2023-06-22T06:56:47;2.63;;;2.40;;
13999;SDS011;7075;53.574;10.054;2023-06-22T06:59:13;3.20;;;2.53;;
13999;SDS011;7075;53.574;10.054;2023-06-22T07:01:40;2.93;;;2.67;;
13999;SDS011;7075;53.574;10.054;2023-06-22T07:04:06;4.83;;;2.23;;
13999;SDS011;7075;53.574;10.054;2023-06-22T07:06:32;3.27;;;2.37;;
13999;SDS011;7075;53.574;10.054;2023-06-22T07:08:58;4.17;;;2.60;;
13999;SDS011;7075;53.574;10.054;2023-06-22T07:11:25;5.60;;;3.13;;
13999;SDS011;7075;53.574;10.054;2023-06-22T07:13:51;6.57;;;3.10;;
13999;SDS011;7075;53.574;10.054;2023-06-22T07:16:16;3.70;;;2.80;;
13999;SDS011;7075;53.574;10.054;2023-06-22T07:18:43;2.40;;;2.20;;
13999;SDS011;7075;53.574;10.054;2023-06-22T07:21:08;2.90;;;2.40;;
13999;SDS011;7075;53.574;10.054;2023-06-22T07:23:34;4.87;;;2.07;;
13999;SDS011;7075;53.574;10.054;2023-06-22T07:26:00;3.90;;;2.23;;
13999;SDS011;7075;53.574;10.054;2023-06-22T07:28:27;5.53;;;2.50;;
13999;SDS011;7075;53.574;10.054;2023-06-22T07:30:56;2.53;;;2.23;;
13999;SDS011;7075;53.574;10.054;2023-06-22T07:33:22;3.67;;;2.43;;
13999;SDS011;7075;53.574;10.054;2023-06-22T07:35:48;6.53;;;2.50;;
13999;SDS011;7075;53.574;10.054;2023-06-22T07:38:16;3.67;;;2.40;;
13999;SDS011;7075;53.574;10.054;2023-06-22T07:40:42;3.00;;;1.90;;
13999;SDS011;7075;53.574;10.054;2023-06-22T07:43:08;2.57;;;2.00;;
13999;SDS011;7075;53.574;10.054;2023-06-22T07:45:34;2.93;;;2.37;;
13999;SDS011;7075;53.574;10.054;2023-06-22T07:48:00;3.70;;;2.40;;
13999;SDS011;7075;53.574;10.054;2023-06-22T07:50:27;3.43;;;2.57;;
13999;SDS011;7075;53.574;10.054;2023-06-22T07:52:52;3.00;;;2.43;;
13999;SDS011;7075;53.574;10.054;2023-06-22T07:55:18;3.60;;;2.43;;
13999;SDS011;7075;53.574;10.054;2023-06-22T07:57:46;4.63;;;2.97;;
13999;SDS011;7075;53.574;10.054;2023-06-22T08:00:21;3.13;;;2.10;;
13999;SDS011;7075;53.574;10.054;2023-06-22T08:02:46;2.07;;;1.83;;
13999;SDS011;7075;53.574;10.054;2023-06-22T08:05:13;3.80;;;1.80;;
13999;SDS011;7075;53.574;10.054;2023-06-22T08:07:40;2.37;;;2.17;;
13999;SDS011;7075;53.574;10.054;2023-06-22T08:10:10;2.97;;;2.00;;
13999;SDS011;7075;53.574;10.054;2023-06-22T08:12:36;1.77;;;1.67;;
13999;SDS011;7075;53.574;10.054;2023-06-22T08:15:02;2.63;;;2.17;;
13999;SDS011;7075;53.574;10.054;2023-06-22T08:17:39;2.53;;;1.90;;
13999;SDS011;7075;53.574;10.054;2023-06-22T08:20:06;3.80;;;1.90;;
13999;SDS011;7075;53.574;10.054;2023-06-22T08:22:37;2.50;;;2.03;;
13999;SDS011;7075;53.574;10.054;2023-06-22T08:25:04;2.37;;;1.93;;
13999;SDS011;7075;53.574;10.054;2023-06-22T08:27:31;2.60;;;2.20;;
13999;SDS011;7075;53.574;10.054;2023-06-22T08:29:58;4.93;;;2.43;;
13999;SDS011;7075;53.574;10.054;2023-06-22T08:32:29;2.13;;;1.87;;
13999;SDS011;7075;53.574;10.054;2023-06-22T08:34:58;3.30;;;2.70;;
13999;SDS011;7075;53.574;10.054;2023-06-22T08:37:23;4.57;;;2.70;;
13999;SDS011;7075;53.574;10.054;2023-06-22T08:39:57;2.43;;;2.10;;
13999;SDS011;7075;53.574;10.054;2023-06-22T08:42:25;5.87;;;2.53;;
13999;SDS011;7075;53.574;10.054;2023-06-22T08:44:51;2.40;;;2.00;;
13999;SDS011;7075;53.574;10.054;2023-06-22T08:47:17;2.37;;;1.80;;
13999;SDS011;7075;53.574;10.054;2023-06-22T08:49:42;2.50;;;2.30;;
13999;SDS011;7075;53.574;10.054;2023-06-22T08:52:08;4.00;;;2.03;;
13999;SDS011;7075;53.574;10.054;2023-06-22T08:54:34;3.27;;;1.80;;
13999;SDS011;7075;53.574;10.054;2023-06-22T08:57:00;3.10;;;2.27;;
13999;SDS011;7075;53.574;10.054;2023-06-22T08:59:31;4.17;;;2.40;;
13999;SDS011;7075;53.574;10.054;2023-06-22T09:01:57;1.97;;;1.73;;
13999;SDS011;7075;53.574;10.054;2023-06-22T09:04:23;2.20;;;2.00;;
13999;SDS011;7075;53.574;10.054;2023-06-22T09:06:49;2.87;;;2.10;;
13999;SDS011;7075;53.574;10.054;2023-06-22T09:09:17;2.87;;;2.30;;
13999;SDS011;7075;53.574;10.054;2023-06-22T09:11:49;2.77;;;2.23;;
13999;SDS011;7075;53.574;10.054;2023-06-22T09:14:15;2.17;;;1.70;;
13999;SDS011;7075;53.574;10.054;2023-06-22T09:16:40;3.00;;;2.27;;
13999;SDS011;7075;53.574;10.054;2023-06-22T09:19:06;3.00;;;2.37;;
13999;SDS011;7075;53.574;10.054;2023-06-22T09:21:32;2.50;;;2.00;;
13999;SDS011;7075;53.574;10.054;2023-06-22T09:23:58;4.03;;;2.10;;
13999;SDS011;7075;53.574;10.054;2023-06-22T09:26:24;4.47;;;2.17;;
13999;SDS011;7075;53.574;10.054;2023-06-22T09:28:51;2.00;;;1.80;;
13999;SDS011;7075;53.574;10.054;2023-06-22T09:31:18;2.60;;;2.07;;
13999;SDS011;7075;53.574;10.054;2023-06-22T09:33:56;3.20;;;1.93;;
13999;SDS011;7075;53.574;10.054;2023-06-22T09:36:22;3.90;;;2.10;;
13999;SDS011;7075;53.574;10.054;2023-06-22T09:38:47;3.80;;;1.80;;
13999;SDS011;7075;53.574;10.054;2023-06-22T09:41:21;1.90;;;1.80;;
13999;SDS011;7075;53.574;10.054;2023-06-22T09:43:48;3.53;;;2.67;;
13999;SDS011;7075;53.574;10.054;2023-06-22T09:46:17;4.10;;;2.00;;
13999;SDS011;7075;53.574;10.054;2023-06-22T09:48:42;2.90;;;2.10;;
13999;SDS011;7075;53.574;10.054;2023-06-22T09:51:08;2.07;;;1.80;;
13999;SDS011;7075;53.574;10.054;2023-06-22T09:53:40;2.10;;;1.90;;
13999;SDS011;7075;53.574;10.054;2023-06-22T09:56:06;2.83;;;1.90;;
13999;SDS011;7075;53.574;10.054;2023-06-22T09:58:32;2.03;;;1.80;;
13999;SDS011;7075;53.574;10.054;2023-06-22T10:00:59;1.93;;;1.83;;
13999;SDS011;7075;53.574;10.054;2023-06-22T10:03:24;2.37;;;1.97;;
13999;SDS011;7075;53.574;10.054;2023-06-22T10:05:51;3.87;;;2.50;;
13999;SDS011;7075;53.574;10.054;2023-06-22T10:08:17;2.10;;;1.77;;
13999;SDS011;7075;53.574;10.054;2023-06-22T10:10:51;3.53;;;2.13;;
13999;SDS011;7075;53.574;10.054;2023-06-22T10:13:17;2.37;;;2.17;;
13999;SDS011;7075;53.574;10.054;2023-06-22T10:15:45;5.93;;;2.77;;
13999;SDS011;7075;53.574;10.054;2023-06-22T10:18:20;4.90;;;2.37;;
13999;SDS011;7075;53.574;10.054;2023-06-22T10:20:47;3.00;;;2.27;;
13999;SDS011;7075;53.574;10.054;2023-06-22T10:23:19;3.27;;;2.20;;
13999;SDS011;7075;53.574;10.054;2023-06-22T10:25:53;2.87;;;2.20;;
13999;SDS011;7075;53.574;10.054;2023-06-22T10:28:22;2.83;;;1.83;;
13999;SDS011;7075;53.574;10.054;2023-06-22T10:30:47;2.60;;;2.23;;
13999;SDS011;7075;53.574;10.054;2023-06-22T10:33:13;2.77;;;2.57;;
13999;SDS011;7075;53.574;10.054;2023-06-22T10:35:39;3.33;;;2.27;;
13999;SDS011;7075;53.574;10.054;2023-06-22T10:38:04;4.65;;;2.50;;
13999;SDS011;7075;53.574;10.054;2023-06-22T10:40:32;2.67;;;2.30;;
13999;SDS011;7075;53.574;10.054;2023-06-22T10:43:01;4.13;;;2.33;;
13999;SDS011;7075;53.574;10.054;2023-06-22T10:45:27;2.95;;;1.92;;
13999;SDS011;7075;53.574;10.054;2023-06-22T10:48:01;3.27;;;2.57;;
13999;SDS011;7075;53.574;10.054;2023-06-22T10:50:27;2.90;;;2.40;;
13999;SDS011;7075;53.574;10.054;2023-06-22T10:52:59;3.80;;;2.50;;
13999;SDS011;7075;53.574;10.054;2023-06-22T10:55:25;3.60;;;2.70;;
13999;SDS011;7075;53.574;10.054;2023-06-22T10:57:50;2.92;;;2.60;;
13999;SDS011;7075;53.574;10.054;2023-06-22T11:00:17;4.20;;;2.73;;
13999;SDS011;7075;53.574;10.054;2023-06-22T11:02:44;4.95;;;2.60;;
13999;SDS011;7075;53.574;10.054;2023-06-22T11:05:09;4.33;;;2.33;;
13999;SDS011;7075;53.574;10.054;2023-06-22T11:07:36;2.60;;;2.38;;
13999;SDS011;7075;53.574;10.054;2023-06-22T11:10:02;3.92;;;2.75;;
13999;SDS011;7075;53.574;10.054;2023-06-22T11:12:28;2.65;;;2.38;;
13999;SDS011;7075;53.574;10.054;2023-06-22T11:14:54;3.60;;;2.45;;
13999;SDS011;7075;53.574;10.054;2023-06-22T11:17:22;3.97;;;3.00;;
13999;SDS011;7075;53.574;10.054;2023-06-22T11:19:50;3.25;;;2.58;;
13999;SDS011;7075;53.574;10.054;2023-06-22T11:22:21;3.58;;;3.22;;
13999;SDS011;7075;53.574;10.054;2023-06-22T11:24:47;3.55;;;2.78;;
13999;SDS011;7075;53.574;10.054;2023-06-22T11:27:13;3.30;;;3.00;;
13999;SDS011;7075;53.574;10.054;2023-06-22T11:29:38;2.90;;;2.60;;
13999;SDS011;7075;53.574;10.054;2023-06-22T11:32:06;4.03;;;3.00;;
13999;SDS011;7075;53.574;10.054;2023-06-22T11:34:32;3.55;;;2.45;;
13999;SDS011;7075;53.574;10.054;2023-06-22T11:37:10;3.60;;;2.90;;
13999;SDS011;7075;53.574;10.054;2023-06-22T11:39:35;2.75;;;2.42;;
13999;SDS011;7075;53.574;10.054;2023-06-22T11:42:02;4.03;;;2.95;;
13999;SDS011;7075;53.574;10.054;2023-06-22T11:44:28;3.65;;;2.88;;
13999;SDS011;7075;53.574;10.054;2023-06-22T11:46:59;6.30;;;3.13;;
13999;SDS011;7075;53.574;10.054;2023-06-22T11:49:29;2.90;;;2.60;;
13999;SDS011;7075;53.574;10.054;2023-06-22T11:51:55;2.67;;;2.20;;
13999;SDS011;7075;53.574;10.054;2023-06-22T11:54:21;4.07;;;2.28;;
13999;SDS011;7075;53.574;10.054;2023-06-22T11:56:46;2.88;;;2.50;;
13999;SDS011;7075;53.574;10.054;2023-06-22T11:59:13;2.90;;;2.60;;
13999;SDS011;7075;53.574;10.054;2023-06-22T12:01:39;2.80;;;2.60;;
13999;SDS011;7075;53.574;10.054;2023-06-22T12:04:05;3.40;;;3.20;;
13999;SDS011;7075;53.574;10.054;2023-06-22T12:06:38;3.50;;;3.20;;
13999;SDS011;7075;53.574;10.054;2023-06-22T12:09:06;3.50;;;3.20;;
13999;SDS011;7075;53.574;10.054;2023-06-22T12:11:32;3.10;;;2.80;;
13999;SDS011;7075;53.574;10.054;2023-06-22T12:13:57;3.35;;;3.05;;
13999;SDS011;7075;53.574;10.054;2023-06-22T12:16:26;3.20;;;3.00;;
13999;SDS011;7075;53.574;10.054;2023-06-22T12:18:52;3.35;;;3.13;;
13999;SDS011;7075;53.574;10.054;2023-06-22T12:21:18;3.70;;;3.30;;
13999;SDS011;7075;53.574;10.054;2023-06-22T12:23:44;4.60;;;3.10;;
13999;SDS011;7075;53.574;10.054;2023-06-22T12:26:09;4.30;;;3.00;;
13999;SDS011;7075;53.574;10.054;2023-06-22T12:28:36;2.90;;;2.70;;
13999;SDS011;7075;53.574;10.054;2023-06-22T12:31:02;3.08;;;2.85;;
13999;SDS011;7075;53.574;10.054;2023-06-22T12:33:28;3.47;;;3.17;;
13999;SDS011;7075;53.574;10.054;2023-06-22T12:35:55;3.83;;;3.53;;
13999;SDS011;7075;53.574;10.054;2023-06-22T12:38:21;3.60;;;3.22;;
13999;SDS011;7075;53.574;10.054;2023-06-22T12:40:48;3.92;;;3.45;;
13999;SDS011;7075;53.574;10.054;2023-06-22T12:43:14;3.72;;;3.33;;
13999;SDS011;7075;53.574;10.054;2023-06-22T12:45:40;4.05;;;3.65;;
13999;SDS011;7075;53.574;10.054;2023-06-22T12:48:07;3.83;;;3.47;;
13999;SDS011;7075;53.574;10.054;2023-06-22T12:50:34;3.90;;;3.50;;
13999;SDS011;7075;53.574;10.054;2023-06-22T12:53:12;4.35;;;3.30;;
13999;SDS011;7075;53.574;10.054;2023-06-22T12:55:39;4.97;;;3.58;;
13999;SDS011;7075;53.574;10.054;2023-06-22T12:58:05;3.80;;;3.47;;
13999;SDS011;7075;53.574;10.054;2023-06-22T13:00:31;3.80;;;3.50;;
13999;SDS011;7075;53.574;10.054;2023-06-22T13:02:56;3.58;;;3.20;;
13999;SDS011;7075;53.574;10.054;2023-06-22T13:05:22;6.95;;;3.80;;
13999;SDS011;7075;53.574;10.054;2023-06-22T13:07:48;3.50;;;3.20;;
13999;SDS011;7075;53.574;10.054;2023-06-22T13:10:20;4.15;;;3.63;;
13999;SDS011;7075;53.574;10.054;2023-06-22T13:12:45;4.32;;;3.72;;
13999;SDS011;7075;53.574;10.054;2023-06-22T13:15:11;3.47;;;3.17;;
13999;SDS011;7075;53.574;10.054;2023-06-22T13:17:37;3.70;;;3.40;;
13999;SDS011;7075;53.574;10.054;2023-06-22T13:20:04;4.60;;;3.45;;
13999;SDS011;7075;53.574;10.054;2023-06-22T13:22:34;4.88;;;3.40;;
13999;SDS011;7075;53.574;10.054;2023-06-22T13:25:17;6.63;;;3.55;;
13999;SDS011;7075;53.574;10.054;2023-06-22T13:27:44;3.88;;;3.58;;
13999;SDS011;7075;53.574;10.054;2023-06-22T13:30:14;4.43;;;4.03;;
13999;SDS011;7075;53.574;10.054;2023-06-22T13:32:44;6.03;;;3.78;;
13999;SDS011;7075;53.574;10.054;2023-06-22T13:35:10;3.92;;;3.58;;
13999;SDS011;7075;53.574;10.054;2023-06-22T13:37:37;4.00;;;3.70;;
13999;SDS011;7075;53.574;10.054;2023-06-22T13:40:13;5.68;;;3.35;;
13999;SDS011;7075;53.574;10.054;2023-06-22T13:42:39;4.13;;;3.80;;
13999;SDS011;7075;53.574;10.054;2023-06-22T13:45:05;4.13;;;3.65;;
13999;SDS011;7075;53.574;10.054;2023-06-22T13:47:32;5.63;;;3.90;;
13999;SDS011;7075;53.574;10.054;2023-06-22T13:50:06;4.22;;;3.83;;
13999;SDS011;7075;53.574;10.054;2023-06-22T13:52:32;4.38;;;3.97;;
13999;SDS011;7075;53.574;10.054;2023-06-22T13:54:57;3.92;;;3.55;;
13999;SDS011;7075;53.574;10.054;2023-06-22T13:57:23;4.57;;;4.03;;
13999;SDS011;7075;53.574;10.054;2023-06-22T13:59:48;4.22;;;3.83;;
13999;SDS011;7075;53.574;10.054;2023-06-22T14:02:14;5.57;;;4.20;;
13999;SDS011;7075;53.574;10.054;2023-06-22T14:04:39;3.72;;;3.42;;
13999;SDS011;7075;53.574;10.054;2023-06-22T14:07:05;4.72;;;3.67;;
13999;SDS011;7075;53.574;10.054;2023-06-22T14:09:31;3.70;;;3.40;;
13999;SDS011;7075;53.574;10.054;2023-06-22T14:12:03;4.15;;;3.70;;
13999;SDS011;7075;53.574;10.054;2023-06-22T14:14:32;5.38;;;4.45;;
13999;SDS011;7075;53.574;10.054;2023-06-22T14:16:58;4.25;;;3.85;;
13999;SDS011;7075;53.574;10.054;2023-06-22T14:19:24;4.18;;;3.88;;
13999;SDS011;7075;53.574;10.054;2023-06-22T14:21:51;4.35;;;4.03;;
13999;SDS011;7075;53.574;10.054;2023-06-22T14:24:17;5.00;;;4.57;;
13999;SDS011;7075;53.574;10.054;2023-06-22T14:26:42;3.97;;;3.67;;
13999;SDS011;7075;53.574;10.054;2023-06-22T14:29:09;4.25;;;3.85;;
13999;SDS011;7075;53.574;10.054;2023-06-22T14:31:36;4.32;;;3.92;;
13999;SDS011;7075;53.574;10.054;2023-06-22T14:34:02;4.85;;;3.97;;
13999;SDS011;7075;53.574;10.054;2023-06-22T14:36:36;6.93;;;4.00;;
13999;SDS011;7075;53.574;10.054;2023-06-22T14:39:03;4.80;;;3.92;;
13999;SDS011;7075;53.574;10.054;2023-06-22T14:41:29;4.80;;;3.92;;
13999;SDS011;7075;53.574;10.054;2023-06-22T14:43:55;4.35;;;3.95;;
13999;SDS011;7075;53.574;10.054;2023-06-22T14:46:21;5.10;;;4.40;;
13999;SDS011;7075;53.574;10.054;2023-06-22T14:48:47;5.60;;;4.32;;
13999;SDS011;7075;53.574;10.054;2023-06-22T14:51:14;6.03;;;3.97;;
13999;SDS011;7075;53.574;10.054;2023-06-22T14:53:41;5.47;;;3.90;;
13999;SDS011;7075;53.574;10.054;2023-06-22T14:56:08;4.50;;;3.97;;
13999;SDS011;7075;53.574;10.054;2023-06-22T14:58:37;4.75;;;3.90;;
13999;SDS011;7075;53.574;10.054;2023-06-22T15:01:05;5.50;;;4.15;;
13999;SDS011;7075;53.574;10.054;2023-06-22T15:03:41;4.65;;;4.25;;
13999;SDS011;7075;53.574;10.054;2023-06-22T15:06:07;4.63;;;4.20;;